sensor_id;sensor_type;location;lat;lon;timestamp;P1;durP1;ratioP1;P2;durP2;ratioP2
74510;SDS011;62991;50.040;18.400;2023-12-28T00:02:24;10.63;;;3.83;;
74510;SDS011;62991;50.040;18.400;2023-12-28T00:05:25;4.05;;;2.05;;
74510;SDS011;62991;50.040;18.400;2023-12-28T00:08:25;16.23;;;5.07;;
74510;SDS011;62991;50.040;18.400;2023-12-28T00:11:26;14.38;;;6.00;;
74510;SDS011;62991;50.040;18.400;2023-12-28T00:14:26;9.73;;;4.10;;
74510;SDS011;62991;50.040;18.400;2023-12-28T00:17:27;7.97;;;3.92;;
74510;SDS011;62991;50.040;18.400;2023-12-28T00:20:28;13.23;;;4.45;;
74510;SDS011;62991;50.040;18.400;2023-12-28T00:23:28;6.35;;;2.88;;
74510;SDS011;62991;50.040;18.400;2023-12-28T00:26:29;6.70;;;3.22;;
74510;SDS011;62991;50.040;18.400;2023-12-28T00:29:30;7.07;;;3.17;;
74510;SDS011;62991;50.040;18.400;2023-12-28T00:32:30;9.32;;;3.83;;
74510;SDS011;62991;50.040;18.400;2023-12-28T00:35:31;9.50;;;3.47;;
74510;SDS011;62991;50.040;18.400;2023-12-28T00:38:32;12.07;;;4.65;;
74510;SDS011;62991;50.040;18.400;2023-12-28T00:41:32;9.23;;;3.80;;
74510;SDS011;62991;50.040;18.400;2023-12-28T00:44:33;10.65;;;4.13;;
74510;SDS011;62991;50.040;18.400;2023-12-28T00:47:34;9.35;;;3.53;;
74510;SDS011;62991;50.040;18.400;2023-12-28T00:50:34;8.60;;;3.83;;
74510;SDS011;62991;50.040;18.400;2023-12-28T00:53:35;12.35;;;4.55;;
74510;SDS011;62991;50.040;18.400;2023-12-28T00:56:35;11.55;;;5.40;;
74510;SDS011;62991;50.040;18.400;2023-12-28T00:59:36;5.88;;;2.50;;
74510;SDS011;62991;50.040;18.400;2023-12-28T01:02:37;5.60;;;3.22;;
74510;SDS011;62991;50.040;18.400;2023-12-28T01:05:37;9.18;;;2.70;;
74510;SDS011;62991;50.040;18.400;2023-12-28T01:08:38;5.45;;;2.45;;
74510;SDS011;62991;50.040;18.400;2023-12-28T01:11:39;10.60;;;3.55;;
74510;SDS011;62991;50.040;18.400;2023-12-28T01:14:39;9.05;;;3.55;;
74510;SDS011;62991;50.040;18.400;2023-12-28T01:17:40;7.35;;;2.80;;
74510;SDS011;62991;50.040;18.400;2023-12-28T01:20:41;12.98;;;3.72;;
74510;SDS011;62991;50.040;18.400;2023-12-28T01:23:41;7.90;;;2.80;;
74510;SDS011;62991;50.040;18.400;2023-12-28T01:26:42;10.25;;;2.42;;
74510;SDS011;62991;50.040;18.400;2023-12-28T01:29:43;4.95;;;2.03;;
74510;SDS011;62991;50.040;18.400;2023-12-28T01:32:43;11.00;;;2.70;;
74510;SDS011;62991;50.040;18.400;2023-12-28T01:35:44;3.30;;;2.05;;
74510;SDS011;62991;50.040;18.400;2023-12-28T01:38:45;6.80;;;2.83;;
74510;SDS011;62991;50.040;18.400;2023-12-28T01:41:46;6.05;;;2.15;;
74510;SDS011;62991;50.040;18.400;2023-12-28T01:44:47;7.63;;;1.95;;
74510;SDS011;62991;50.040;18.400;2023-12-28T01:47:47;5.50;;;3.00;;
74510;SDS011;62991;50.040;18.400;2023-12-28T01:50:50;8.00;;;3.33;;
74510;SDS011;62991;50.040;18.400;2023-12-28T01:53:50;13.10;;;4.75;;
74510;SDS011;62991;50.040;18.400;2023-12-28T01:56:52;17.05;;;4.75;;
74510;SDS011;62991;50.040;18.400;2023-12-28T01:59:53;13.07;;;4.72;;
74510;SDS011;62991;50.040;18.400;2023-12-28T02:02:54;7.75;;;2.75;;
74510;SDS011;62991;50.040;18.400;2023-12-28T02:05:56;16.48;;;5.43;;
74510;SDS011;62991;50.040;18.400;2023-12-28T02:08:57;19.48;;;6.13;;
74510;SDS011;62991;50.040;18.400;2023-12-28T02:11:58;20.25;;;7.00;;
74510;SDS011;62991;50.040;18.400;2023-12-28T02:14:58;17.85;;;7.78;;
74510;SDS011;62991;50.040;18.400;2023-12-28T02:18:05;26.38;;;11.30;;
74510;SDS011;62991;50.040;18.400;2023-12-28T02:21:12;22.52;;;10.73;;
74510;SDS011;62991;50.040;18.400;2023-12-28T02:24:15;18.90;;;9.07;;
74510;SDS011;62991;50.040;18.400;2023-12-28T02:27:15;22.60;;;10.60;;
74510;SDS011;62991;50.040;18.400;2023-12-28T02:30:17;10.35;;;5.00;;
74510;SDS011;62991;50.040;18.400;2023-12-28T02:36:29;10.20;;;4.20;;
74510;SDS011;62991;50.040;18.400;2023-12-28T02:39:30;19.70;;;7.60;;
74510;SDS011;62991;50.040;18.400;2023-12-28T02:42:31;16.42;;;5.47;;
74510;SDS011;62991;50.040;18.400;2023-12-28T02:45:32;18.27;;;6.90;;
74510;SDS011;62991;50.040;18.400;2023-12-28T02:48:33;25.40;;;7.50;;
74510;SDS011;62991;50.040;18.400;2023-12-28T02:51:34;17.60;;;5.68;;
74510;SDS011;62991;50.040;18.400;2023-12-28T02:54:35;6.95;;;3.20;;
74510;SDS011;62991;50.040;18.400;2023-12-28T02:57:37;11.68;;;4.25;;
74510;SDS011;62991;50.040;18.400;2023-12-28T03:00:38;9.23;;;3.28;;
74510;SDS011;62991;50.040;18.400;2023-12-28T03:03:38;10.73;;;4.15;;
74510;SDS011;62991;50.040;18.400;2023-12-28T03:06:39;10.70;;;3.75;;
74510;SDS011;62991;50.040;18.400;2023-12-28T03:09:40;14.98;;;4.47;;
74510;SDS011;62991;50.040;18.400;2023-12-28T03:12:41;11.32;;;4.55;;
74510;SDS011;62991;50.040;18.400;2023-12-28T03:15:42;18.13;;;4.97;;
74510;SDS011;62991;50.040;18.400;2023-12-28T03:18:43;3.47;;;2.00;;
74510;SDS011;62991;50.040;18.400;2023-12-28T03:21:43;10.55;;;3.58;;
74510;SDS011;62991;50.040;18.400;2023-12-28T03:24:44;16.08;;;4.38;;
74510;SDS011;62991;50.040;18.400;2023-12-28T03:27:44;13.18;;;4.53;;
74510;SDS011;62991;50.040;18.400;2023-12-28T03:30:45;9.60;;;3.95;;
74510;SDS011;62991;50.040;18.400;2023-12-28T03:33:46;4.93;;;1.50;;
74510;SDS011;62991;50.040;18.400;2023-12-28T03:36:46;3.72;;;1.80;;
74510;SDS011;62991;50.040;18.400;2023-12-28T03:39:47;6.70;;;2.83;;
74510;SDS011;62991;50.040;18.400;2023-12-28T03:42:48;9.40;;;2.53;;
74510;SDS011;62991;50.040;18.400;2023-12-28T03:45:48;8.65;;;2.88;;
74510;SDS011;62991;50.040;18.400;2023-12-28T03:48:49;9.10;;;1.90;;
74510;SDS011;62991;50.040;18.400;2023-12-28T03:51:50;7.35;;;2.35;;
74510;SDS011;62991;50.040;18.400;2023-12-28T03:54:52;7.03;;;3.05;;
74510;SDS011;62991;50.040;18.400;2023-12-28T03:57:52;3.67;;;1.65;;
74510;SDS011;62991;50.040;18.400;2023-12-28T04:00:53;6.25;;;2.83;;
74510;SDS011;62991;50.040;18.400;2023-12-28T04:03:54;9.15;;;3.17;;
74510;SDS011;62991;50.040;18.400;2023-12-28T04:06:54;7.00;;;2.65;;
74510;SDS011;62991;50.040;18.400;2023-12-28T04:09:55;6.75;;;2.67;;
74510;SDS011;62991;50.040;18.400;2023-12-28T04:12:58;4.95;;;2.53;;
74510;SDS011;62991;50.040;18.400;2023-12-28T04:15:59;4.38;;;2.22;;
74510;SDS011;62991;50.040;18.400;2023-12-28T04:18:59;5.70;;;2.83;;
74510;SDS011;62991;50.040;18.400;2023-12-28T04:22:00;7.57;;;2.80;;
74510;SDS011;62991;50.040;18.400;2023-12-28T04:25:01;11.18;;;4.80;;
74510;SDS011;62991;50.040;18.400;2023-12-28T04:28:02;8.27;;;3.13;;
74510;SDS011;62991;50.040;18.400;2023-12-28T04:31:03;9.25;;;3.20;;
74510;SDS011;62991;50.040;18.400;2023-12-28T04:34:05;8.00;;;3.28;;
74510;SDS011;62991;50.040;18.400;2023-12-28T04:37:05;8.27;;;3.63;;
74510;SDS011;62991;50.040;18.400;2023-12-28T04:40:06;7.25;;;3.03;;
74510;SDS011;62991;50.040;18.400;2023-12-28T04:43:07;6.93;;;3.47;;
74510;SDS011;62991;50.040;18.400;2023-12-28T04:46:08;5.00;;;2.67;;
74510;SDS011;62991;50.040;18.400;2023-12-28T04:49:10;8.40;;;3.72;;
74510;SDS011;62991;50.040;18.400;2023-12-28T04:52:11;6.05;;;2.80;;
74510;SDS011;62991;50.040;18.400;2023-12-28T04:55:11;15.43;;;4.53;;
74510;SDS011;62991;50.040;18.400;2023-12-28T04:58:12;13.15;;;6.50;;
74510;SDS011;62991;50.040;18.400;2023-12-28T05:01:13;14.68;;;5.45;;
74510;SDS011;62991;50.040;18.400;2023-12-28T05:04:14;21.50;;;7.90;;
74510;SDS011;62991;50.040;18.400;2023-12-28T05:07:14;15.18;;;4.97;;
74510;SDS011;62991;50.040;18.400;2023-12-28T05:10:15;16.85;;;7.32;;
74510;SDS011;62991;50.040;18.400;2023-12-28T05:13:16;20.30;;;6.82;;
74510;SDS011;62991;50.040;18.400;2023-12-28T05:16:16;18.13;;;5.65;;
74510;SDS011;62991;50.040;18.400;2023-12-28T05:19:17;13.52;;;4.78;;
74510;SDS011;62991;50.040;18.400;2023-12-28T05:22:18;12.40;;;4.50;;
74510;SDS011;62991;50.040;18.400;2023-12-28T05:25:18;3.63;;;1.98;;
74510;SDS011;62991;50.040;18.400;2023-12-28T05:28:19;8.88;;;3.60;;
74510;SDS011;62991;50.040;18.400;2023-12-28T05:31:20;9.52;;;4.80;;
74510;SDS011;62991;50.040;18.400;2023-12-28T05:34:21;16.48;;;4.88;;
74510;SDS011;62991;50.040;18.400;2023-12-28T05:37:22;11.02;;;3.42;;
74510;SDS011;62991;50.040;18.400;2023-12-28T05:40:23;5.75;;;2.00;;
74510;SDS011;62991;50.040;18.400;2023-12-28T05:43:23;2.85;;;1.35;;
74510;SDS011;62991;50.040;18.400;2023-12-28T05:46:24;7.30;;;3.05;;
74510;SDS011;62991;50.040;18.400;2023-12-28T05:49:25;10.35;;;3.20;;
74510;SDS011;62991;50.040;18.400;2023-12-28T05:52:25;7.40;;;2.67;;
74510;SDS011;62991;50.040;18.400;2023-12-28T05:55:26;2.35;;;1.38;;
74510;SDS011;62991;50.040;18.400;2023-12-28T05:58:26;6.30;;;3.03;;
74510;SDS011;62991;50.040;18.400;2023-12-28T06:01:27;6.65;;;2.63;;
74510;SDS011;62991;50.040;18.400;2023-12-28T06:04:28;4.57;;;2.15;;
74510;SDS011;62991;50.040;18.400;2023-12-28T06:07:28;7.75;;;3.45;;
74510;SDS011;62991;50.040;18.400;2023-12-28T06:10:29;10.27;;;2.70;;
74510;SDS011;62991;50.040;18.400;2023-12-28T06:13:30;8.90;;;3.35;;
74510;SDS011;62991;50.040;18.400;2023-12-28T06:16:30;9.68;;;4.22;;
74510;SDS011;62991;50.040;18.400;2023-12-28T06:19:33;6.32;;;2.92;;
74510;SDS011;62991;50.040;18.400;2023-12-28T06:22:36;8.23;;;3.25;;
74510;SDS011;62991;50.040;18.400;2023-12-28T06:25:37;6.80;;;2.08;;
74510;SDS011;62991;50.040;18.400;2023-12-28T06:28:37;7.72;;;4.15;;
74510;SDS011;62991;50.040;18.400;2023-12-28T06:31:38;5.32;;;2.50;;
74510;SDS011;62991;50.040;18.400;2023-12-28T06:34:39;11.80;;;4.90;;
74510;SDS011;62991;50.040;18.400;2023-12-28T06:37:39;3.15;;;1.60;;
74510;SDS011;62991;50.040;18.400;2023-12-28T06:40:42;8.93;;;3.30;;
74510;SDS011;62991;50.040;18.400;2023-12-28T06:43:43;8.45;;;3.10;;
74510;SDS011;62991;50.040;18.400;2023-12-28T06:46:43;11.50;;;4.30;;
74510;SDS011;62991;50.040;18.400;2023-12-28T06:49:44;8.10;;;3.55;;
74510;SDS011;62991;50.040;18.400;2023-12-28T06:52:45;6.97;;;3.10;;
74510;SDS011;62991;50.040;18.400;2023-12-28T06:55:45;6.70;;;3.15;;
74510;SDS011;62991;50.040;18.400;2023-12-28T06:58:46;9.90;;;5.13;;
74510;SDS011;62991;50.040;18.400;2023-12-28T07:01:47;7.18;;;2.78;;
74510;SDS011;62991;50.040;18.400;2023-12-28T07:04:49;8.10;;;3.47;;
74510;SDS011;62991;50.040;18.400;2023-12-28T07:07:50;9.90;;;4.07;;
74510;SDS011;62991;50.040;18.400;2023-12-28T07:10:50;10.57;;;3.55;;
74510;SDS011;62991;50.040;18.400;2023-12-28T07:13:51;13.88;;;5.07;;
74510;SDS011;62991;50.040;18.400;2023-12-28T07:16:52;10.80;;;4.22;;
74510;SDS011;62991;50.040;18.400;2023-12-28T07:19:52;11.68;;;4.72;;
74510;SDS011;62991;50.040;18.400;2023-12-28T07:22:54;13.40;;;4.45;;
74510;SDS011;62991;50.040;18.400;2023-12-28T07:25:54;7.28;;;2.72;;
74510;SDS011;62991;50.040;18.400;2023-12-28T07:28:55;8.32;;;3.92;;
74510;SDS011;62991;50.040;18.400;2023-12-28T07:31:56;14.02;;;6.35;;
74510;SDS011;62991;50.040;18.400;2023-12-28T07:34:56;33.65;;;10.00;;
74510;SDS011;62991;50.040;18.400;2023-12-28T07:37:58;32.28;;;10.68;;
74510;SDS011;62991;50.040;18.400;2023-12-28T07:40:59;15.55;;;5.60;;
74510;SDS011;62991;50.040;18.400;2023-12-28T07:44:00;37.67;;;14.57;;
74510;SDS011;62991;50.040;18.400;2023-12-28T07:47:00;19.70;;;8.20;;
74510;SDS011;62991;50.040;18.400;2023-12-28T07:50:01;19.23;;;7.38;;
74510;SDS011;62991;50.040;18.400;2023-12-28T07:53:02;13.13;;;5.07;;
74510;SDS011;62991;50.040;18.400;2023-12-28T07:56:03;9.13;;;4.13;;
74510;SDS011;62991;50.040;18.400;2023-12-28T07:59:04;11.60;;;4.05;;
74510;SDS011;62991;50.040;18.400;2023-12-28T08:02:06;11.43;;;4.57;;
74510;SDS011;62991;50.040;18.400;2023-12-28T08:05:08;9.35;;;3.50;;
74510;SDS011;62991;50.040;18.400;2023-12-28T08:08:09;13.35;;;4.90;;
74510;SDS011;62991;50.040;18.400;2023-12-28T08:11:09;13.68;;;4.40;;
74510;SDS011;62991;50.040;18.400;2023-12-28T08:14:10;13.75;;;6.00;;
74510;SDS011;62991;50.040;18.400;2023-12-28T08:17:11;17.23;;;6.68;;
74510;SDS011;62991;50.040;18.400;2023-12-28T08:20:11;17.40;;;6.13;;
74510;SDS011;62991;50.040;18.400;2023-12-28T08:23:12;24.42;;;6.95;;
74510;SDS011;62991;50.040;18.400;2023-12-28T08:26:13;14.80;;;5.53;;
74510;SDS011;62991;50.040;18.400;2023-12-28T08:29:13;18.60;;;7.43;;
74510;SDS011;62991;50.040;18.400;2023-12-28T08:32:14;12.27;;;3.47;;
74510;SDS011;62991;50.040;18.400;2023-12-28T08:35:15;12.13;;;4.78;;
74510;SDS011;62991;50.040;18.400;2023-12-28T08:38:15;7.88;;;3.45;;
74510;SDS011;62991;50.040;18.400;2023-12-28T08:41:24;11.68;;;4.32;;
74510;SDS011;62991;50.040;18.400;2023-12-28T08:44:24;14.70;;;3.97;;
74510;SDS011;62991;50.040;18.400;2023-12-28T08:47:25;11.80;;;4.30;;
74510;SDS011;62991;50.040;18.400;2023-12-28T08:50:26;10.50;;;4.55;;
74510;SDS011;62991;50.040;18.400;2023-12-28T08:53:26;11.15;;;4.65;;
74510;SDS011;62991;50.040;18.400;2023-12-28T08:56:27;11.95;;;5.25;;
74510;SDS011;62991;50.040;18.400;2023-12-28T08:59:28;11.52;;;4.22;;
74510;SDS011;62991;50.040;18.400;2023-12-28T09:02:29;8.32;;;2.70;;
74510;SDS011;62991;50.040;18.400;2023-12-28T09:05:29;14.50;;;5.25;;
74510;SDS011;62991;50.040;18.400;2023-12-28T09:08:30;26.20;;;7.82;;
74510;SDS011;62991;50.040;18.400;2023-12-28T09:11:30;15.75;;;6.05;;
74510;SDS011;62991;50.040;18.400;2023-12-28T09:14:31;10.77;;;3.92;;
74510;SDS011;62991;50.040;18.400;2023-12-28T09:17:32;15.77;;;4.55;;
74510;SDS011;62991;50.040;18.400;2023-12-28T09:20:33;15.60;;;6.18;;
74510;SDS011;62991;50.040;18.400;2023-12-28T09:23:35;7.70;;;2.97;;
74510;SDS011;62991;50.040;18.400;2023-12-28T09:26:36;13.95;;;5.50;;
74510;SDS011;62991;50.040;18.400;2023-12-28T09:29:37;15.60;;;5.90;;
74510;SDS011;62991;50.040;18.400;2023-12-28T09:32:37;8.80;;;3.80;;
74510;SDS011;62991;50.040;18.400;2023-12-28T09:35:38;12.95;;;5.13;;
74510;SDS011;62991;50.040;18.400;2023-12-28T09:38:39;13.27;;;5.13;;
74510;SDS011;62991;50.040;18.400;2023-12-28T09:41:39;8.60;;;4.22;;
74510;SDS011;62991;50.040;18.400;2023-12-28T09:44:48;12.70;;;5.22;;
74510;SDS011;62991;50.040;18.400;2023-12-28T09:47:49;11.80;;;4.78;;
74510;SDS011;62991;50.040;18.400;2023-12-28T09:50:51;14.90;;;5.32;;
74510;SDS011;62991;50.040;18.400;2023-12-28T09:53:54;15.50;;;3.63;;
74510;SDS011;62991;50.040;18.400;2023-12-28T09:56:56;12.10;;;4.85;;
74510;SDS011;62991;50.040;18.400;2023-12-28T09:59:57;11.75;;;5.68;;
74510;SDS011;62991;50.040;18.400;2023-12-28T10:02:58;9.45;;;3.92;;
74510;SDS011;62991;50.040;18.400;2023-12-28T10:05:59;16.58;;;5.55;;
74510;SDS011;62991;50.040;18.400;2023-12-28T10:08:59;14.15;;;4.63;;
74510;SDS011;62991;50.040;18.400;2023-12-28T10:12:00;6.55;;;3.97;;
74510;SDS011;62991;50.040;18.400;2023-12-28T10:15:06;12.57;;;4.65;;
74510;SDS011;62991;50.040;18.400;2023-12-28T10:18:07;10.88;;;4.70;;
74510;SDS011;62991;50.040;18.400;2023-12-28T10:21:07;12.25;;;5.35;;
74510;SDS011;62991;50.040;18.400;2023-12-28T10:24:09;8.48;;;4.55;;
74510;SDS011;62991;50.040;18.400;2023-12-28T10:27:10;13.50;;;3.95;;
74510;SDS011;62991;50.040;18.400;2023-12-28T10:30:13;9.35;;;3.80;;
74510;SDS011;62991;50.040;18.400;2023-12-28T10:33:14;17.05;;;5.40;;
74510;SDS011;62991;50.040;18.400;2023-12-28T10:36:15;5.00;;;2.55;;
74510;SDS011;62991;50.040;18.400;2023-12-28T10:39:18;25.08;;;6.85;;
74510;SDS011;62991;50.040;18.400;2023-12-28T10:42:31;12.23;;;3.28;;
74510;SDS011;62991;50.040;18.400;2023-12-28T10:45:32;15.55;;;5.22;;
74510;SDS011;62991;50.040;18.400;2023-12-28T10:48:35;11.95;;;4.45;;
74510;SDS011;62991;50.040;18.400;2023-12-28T10:51:42;10.07;;;3.95;;
74510;SDS011;62991;50.040;18.400;2023-12-28T10:54:56;11.43;;;4.00;;
74510;SDS011;62991;50.040;18.400;2023-12-28T10:58:09;12.80;;;5.05;;
74510;SDS011;62991;50.040;18.400;2023-12-28T11:01:21;4.93;;;2.50;;
74510;SDS011;62991;50.040;18.400;2023-12-28T11:07:30;13.07;;;4.70;;
74510;SDS011;62991;50.040;18.400;2023-12-28T11:10:33;6.75;;;2.97;;
74510;SDS011;62991;50.040;18.400;2023-12-28T11:13:35;12.65;;;5.38;;
74510;SDS011;62991;50.040;18.400;2023-12-28T11:16:36;11.02;;;4.68;;
74510;SDS011;62991;50.040;18.400;2023-12-28T11:19:38;12.52;;;4.10;;
74510;SDS011;62991;50.040;18.400;2023-12-28T11:22:39;4.82;;;2.13;;
74510;SDS011;62991;50.040;18.400;2023-12-28T11:25:41;9.75;;;4.47;;
74510;SDS011;62991;50.040;18.400;2023-12-28T11:28:41;7.75;;;3.67;;
74510;SDS011;62991;50.040;18.400;2023-12-28T11:31:42;12.23;;;4.18;;
74510;SDS011;62991;50.040;18.400;2023-12-28T11:34:43;9.80;;;4.82;;
74510;SDS011;62991;50.040;18.400;2023-12-28T11:37:44;11.00;;;4.60;;
74510;SDS011;62991;50.040;18.400;2023-12-28T11:40:48;12.52;;;5.00;;
74510;SDS011;62991;50.040;18.400;2023-12-28T11:43:53;13.45;;;4.65;;
74510;SDS011;62991;50.040;18.400;2023-12-28T11:46:54;11.18;;;5.15;;
74510;SDS011;62991;50.040;18.400;2023-12-28T11:50:05;7.35;;;3.20;;
74510;SDS011;62991;50.040;18.400;2023-12-28T11:53:07;12.43;;;4.57;;
74510;SDS011;62991;50.040;18.400;2023-12-28T11:56:07;6.50;;;2.78;;
74510;SDS011;62991;50.040;18.400;2023-12-28T11:59:10;8.18;;;3.85;;
74510;SDS011;62991;50.040;18.400;2023-12-28T12:02:10;9.45;;;4.50;;
74510;SDS011;62991;50.040;18.400;2023-12-28T12:05:11;8.38;;;4.25;;
74510;SDS011;62991;50.040;18.400;2023-12-28T12:08:13;8.02;;;3.25;;
74510;SDS011;62991;50.040;18.400;2023-12-28T12:11:14;11.60;;;4.97;;
74510;SDS011;62991;50.040;18.400;2023-12-28T12:14:17;12.88;;;4.20;;
74510;SDS011;62991;50.040;18.400;2023-12-28T12:17:18;12.30;;;4.57;;
74510;SDS011;62991;50.040;18.400;2023-12-28T12:20:19;12.20;;;4.43;;
74510;SDS011;62991;50.040;18.400;2023-12-28T12:23:20;10.35;;;3.75;;
74510;SDS011;62991;50.040;18.400;2023-12-28T12:26:20;13.70;;;6.75;;
74510;SDS011;62991;50.040;18.400;2023-12-28T12:29:21;12.07;;;4.85;;
74510;SDS011;62991;50.040;18.400;2023-12-28T12:32:22;9.20;;;3.67;;
74510;SDS011;62991;50.040;18.400;2023-12-28T12:35:23;15.50;;;5.15;;
74510;SDS011;62991;50.040;18.400;2023-12-28T12:38:24;17.38;;;5.68;;
74510;SDS011;62991;50.040;18.400;2023-12-28T12:41:25;19.52;;;7.57;;
74510;SDS011;62991;50.040;18.400;2023-12-28T12:44:26;19.55;;;7.47;;
74510;SDS011;62991;50.040;18.400;2023-12-28T12:47:31;9.85;;;4.40;;
74510;SDS011;62991;50.040;18.400;2023-12-28T12:50:33;13.23;;;4.80;;
74510;SDS011;62991;50.040;18.400;2023-12-28T12:53:35;19.13;;;7.32;;
74510;SDS011;62991;50.040;18.400;2023-12-28T12:56:39;12.98;;;5.93;;
74510;SDS011;62991;50.040;18.400;2023-12-28T12:59:45;15.93;;;5.43;;
74510;SDS011;62991;50.040;18.400;2023-12-28T13:02:46;32.05;;;9.50;;
74510;SDS011;62991;50.040;18.400;2023-12-28T13:05:46;18.52;;;5.97;;
74510;SDS011;62991;50.040;18.400;2023-12-28T13:08:47;25.17;;;8.45;;
74510;SDS011;62991;50.040;18.400;2023-12-28T13:11:48;24.65;;;7.95;;
74510;SDS011;62991;50.040;18.400;2023-12-28T13:14:50;18.35;;;7.85;;
74510;SDS011;62991;50.040;18.400;2023-12-28T13:17:50;16.20;;;5.68;;
74510;SDS011;62991;50.040;18.400;2023-12-28T13:20:51;9.35;;;3.08;;
74510;SDS011;62991;50.040;18.400;2023-12-28T13:23:52;21.42;;;7.43;;
74510;SDS011;62991;50.040;18.400;2023-12-28T13:26:52;20.05;;;7.60;;
74510;SDS011;62991;50.040;18.400;2023-12-28T13:29:53;20.02;;;7.82;;
74510;SDS011;62991;50.040;18.400;2023-12-28T13:32:54;20.20;;;7.18;;
74510;SDS011;62991;50.040;18.400;2023-12-28T13:35:58;26.10;;;11.95;;
74510;SDS011;62991;50.040;18.400;2023-12-28T13:38:59;21.80;;;8.02;;
74510;SDS011;62991;50.040;18.400;2023-12-28T13:41:59;48.35;;;18.33;;
74510;SDS011;62991;50.040;18.400;2023-12-28T13:45:00;13.63;;;5.57;;
74510;SDS011;62991;50.040;18.400;2023-12-28T13:48:02;15.43;;;5.80;;
74510;SDS011;62991;50.040;18.400;2023-12-28T13:51:03;15.88;;;6.13;;
74510;SDS011;62991;50.040;18.400;2023-12-28T13:54:04;17.38;;;5.90;;
74510;SDS011;62991;50.040;18.400;2023-12-28T13:57:06;20.50;;;6.38;;
74510;SDS011;62991;50.040;18.400;2023-12-28T14:00:07;21.75;;;7.00;;
74510;SDS011;62991;50.040;18.400;2023-12-28T14:03:08;28.95;;;8.73;;
74510;SDS011;62991;50.040;18.400;2023-12-28T14:06:09;22.05;;;8.35;;
74510;SDS011;62991;50.040;18.400;2023-12-28T14:09:10;18.00;;;7.53;;
74510;SDS011;62991;50.040;18.400;2023-12-28T14:12:12;24.25;;;9.25;;
74510;SDS011;62991;50.040;18.400;2023-12-28T14:15:12;24.05;;;8.73;;
74510;SDS011;62991;50.040;18.400;2023-12-28T14:18:16;25.83;;;9.75;;
74510;SDS011;62991;50.040;18.400;2023-12-28T14:21:16;26.45;;;9.15;;
74510;SDS011;62991;50.040;18.400;2023-12-28T14:24:17;20.23;;;8.30;;
74510;SDS011;62991;50.040;18.400;2023-12-28T14:27:18;18.70;;;8.07;;
74510;SDS011;62991;50.040;18.400;2023-12-28T14:30:19;13.55;;;5.72;;
74510;SDS011;62991;50.040;18.400;2023-12-28T14:33:20;22.15;;;8.10;;
74510;SDS011;62991;50.040;18.400;2023-12-28T14:36:25;13.07;;;5.75;;
74510;SDS011;62991;50.040;18.400;2023-12-28T14:39:31;15.65;;;5.40;;
74510;SDS011;62991;50.040;18.400;2023-12-28T14:42:32;14.82;;;5.85;;
74510;SDS011;62991;50.040;18.400;2023-12-28T14:45:33;19.63;;;6.65;;
74510;SDS011;62991;50.040;18.400;2023-12-28T14:48:34;15.43;;;5.53;;
74510;SDS011;62991;50.040;18.400;2023-12-28T14:51:35;19.65;;;6.60;;
74510;SDS011;62991;50.040;18.400;2023-12-28T14:54:35;25.67;;;8.82;;
74510;SDS011;62991;50.040;18.400;2023-12-28T14:57:36;12.73;;;5.35;;
74510;SDS011;62991;50.040;18.400;2023-12-28T15:00:36;11.20;;;5.10;;
74510;SDS011;62991;50.040;18.400;2023-12-28T15:03:38;18.08;;;7.20;;
74510;SDS011;62991;50.040;18.400;2023-12-28T15:06:39;19.27;;;7.13;;
74510;SDS011;62991;50.040;18.400;2023-12-28T15:09:40;11.00;;;4.45;;
74510;SDS011;62991;50.040;18.400;2023-12-28T15:12:41;27.83;;;7.20;;
74510;SDS011;62991;50.040;18.400;2023-12-28T15:15:42;23.05;;;7.43;;
74510;SDS011;62991;50.040;18.400;2023-12-28T15:18:44;24.90;;;8.20;;
74510;SDS011;62991;50.040;18.400;2023-12-28T15:21:45;13.82;;;3.78;;
74510;SDS011;62991;50.040;18.400;2023-12-28T15:24:46;24.88;;;8.07;;
74510;SDS011;62991;50.040;18.400;2023-12-28T15:27:47;15.18;;;6.25;;
74510;SDS011;62991;50.040;18.400;2023-12-28T15:30:48;22.15;;;8.05;;
74510;SDS011;62991;50.040;18.400;2023-12-28T15:33:48;23.27;;;9.25;;
74510;SDS011;62991;50.040;18.400;2023-12-28T15:36:49;24.13;;;8.70;;
74510;SDS011;62991;50.040;18.400;2023-12-28T15:39:50;16.38;;;7.28;;
74510;SDS011;62991;50.040;18.400;2023-12-28T15:42:50;23.58;;;9.40;;
74510;SDS011;62991;50.040;18.400;2023-12-28T15:45:51;23.90;;;8.85;;
74510;SDS011;62991;50.040;18.400;2023-12-28T15:48:51;15.75;;;6.88;;
74510;SDS011;62991;50.040;18.400;2023-12-28T15:51:53;13.93;;;6.28;;
74510;SDS011;62991;50.040;18.400;2023-12-28T15:54:53;29.25;;;10.00;;
74510;SDS011;62991;50.040;18.400;2023-12-28T15:57:54;23.73;;;8.82;;
74510;SDS011;62991;50.040;18.400;2023-12-28T16:00:54;25.83;;;9.98;;
74510;SDS011;62991;50.040;18.400;2023-12-28T16:03:55;29.10;;;10.93;;
74510;SDS011;62991;50.040;18.400;2023-12-28T16:06:56;26.42;;;8.75;;
74510;SDS011;62991;50.040;18.400;2023-12-28T16:09:57;25.58;;;8.43;;
74510;SDS011;62991;50.040;18.400;2023-12-28T16:12:57;23.55;;;8.38;;
74510;SDS011;62991;50.040;18.400;2023-12-28T16:15:59;12.82;;;5.30;;
74510;SDS011;62991;50.040;18.400;2023-12-28T16:19:00;21.67;;;7.50;;
74510;SDS011;62991;50.040;18.400;2023-12-28T16:22:01;25.30;;;9.25;;
74510;SDS011;62991;50.040;18.400;2023-12-28T16:25:02;21.90;;;7.95;;
74510;SDS011;62991;50.040;18.400;2023-12-28T16:28:03;29.02;;;10.07;;
74510;SDS011;62991;50.040;18.400;2023-12-28T16:31:04;28.75;;;8.82;;
74510;SDS011;62991;50.040;18.400;2023-12-28T16:34:05;38.42;;;10.77;;
74510;SDS011;62991;50.040;18.400;2023-12-28T16:37:06;32.47;;;11.80;;
74510;SDS011;62991;50.040;18.400;2023-12-28T16:40:07;28.17;;;9.13;;
74510;SDS011;62991;50.040;18.400;2023-12-28T16:43:08;48.88;;;12.50;;
74510;SDS011;62991;50.040;18.400;2023-12-28T16:46:08;18.27;;;7.18;;
74510;SDS011;62991;50.040;18.400;2023-12-28T16:49:09;27.10;;;9.18;;
74510;SDS011;62991;50.040;18.400;2023-12-28T16:52:10;31.00;;;10.00;;
74510;SDS011;62991;50.040;18.400;2023-12-28T16:55:12;43.90;;;14.18;;
74510;SDS011;62991;50.040;18.400;2023-12-28T16:58:13;44.72;;;12.50;;
74510;SDS011;62991;50.040;18.400;2023-12-28T17:01:14;30.70;;;10.85;;
74510;SDS011;62991;50.040;18.400;2023-12-28T17:04:14;21.23;;;8.40;;
74510;SDS011;62991;50.040;18.400;2023-12-28T17:07:15;27.65;;;10.00;;
74510;SDS011;62991;50.040;18.400;2023-12-28T17:10:16;17.98;;;5.90;;
74510;SDS011;62991;50.040;18.400;2023-12-28T17:13:17;22.05;;;7.75;;
74510;SDS011;62991;50.040;18.400;2023-12-28T17:16:19;16.80;;;6.15;;
74510;SDS011;62991;50.040;18.400;2023-12-28T17:19:20;20.75;;;8.40;;
74510;SDS011;62991;50.040;18.400;2023-12-28T17:22:22;25.35;;;9.02;;
74510;SDS011;62991;50.040;18.400;2023-12-28T17:25:42;21.27;;;7.22;;
74510;SDS011;62991;50.040;18.400;2023-12-28T17:29:06;23.40;;;7.85;;
74510;SDS011;62991;50.040;18.400;2023-12-28T17:35:09;16.73;;;5.88;;
74510;SDS011;62991;50.040;18.400;2023-12-28T17:38:10;14.05;;;5.95;;
74510;SDS011;62991;50.040;18.400;2023-12-28T17:41:12;30.85;;;8.48;;
74510;SDS011;62991;50.040;18.400;2023-12-28T17:44:14;31.55;;;10.05;;
74510;SDS011;62991;50.040;18.400;2023-12-28T17:47:48;18.88;;;6.10;;
74510;SDS011;62991;50.040;18.400;2023-12-28T17:50:52;15.10;;;6.18;;
74510;SDS011;62991;50.040;18.400;2023-12-28T17:53:54;23.55;;;9.10;;
74510;SDS011;62991;50.040;18.400;2023-12-28T17:56:55;23.40;;;6.97;;